sensor_id;sensor_type;location;lat;lon;timestamp;pressure;altitude;pressure_sealevel;temperature;humidity
12793;BME280;6460;42.684;23.260;2024-03-02T00:01:06;93991.38;;;8.92;100.00
12793;BME280;6460;42.684;23.260;2024-03-02T00:03:34;93990.72;;;8.76;100.00
12793;BME280;6460;42.684;23.260;2024-03-02T00:06:02;93998.09;;;9.05;100.00
12793;BME280;6460;42.684;23.260;2024-03-02T00:08:32;93994.81;;;9.15;100.00
12793;BME280;6460;42.684;23.260;2024-03-02T00:11:00;94001.84;;;9.00;100.00
12793;BME280;6460;42.684;23.260;2024-03-02T00:13:29;93993.22;;;8.88;100.00
12793;BME280;6460;42.684;23.260;2024-03-02T00:15:58;94001.75;;;9.20;100.00
12793;BME280;6460;42.684;23.260;2024-03-02T00:18:27;93998.81;;;9.02;100.00
12793;BME280;6460;42.684;23.260;2024-03-02T00:20:58;94001.59;;;9.09;100.00
12793;BME280;6460;42.684;23.260;2024-03-02T00:23:27;93999.00;;;8.90;100.00
12793;BME280;6460;42.684;23.260;2024-03-02T00:25:58;94001.41;;;8.53;100.00
12793;BME280;6460;42.684;23.260;2024-03-02T00:28:29;93996.97;;;8.61;100.00
12793;BME280;6460;42.684;23.260;2024-03-02T00:31:02;94009.06;;;8.32;100.00
12793;BME280;6460;42.684;23.260;2024-03-02T00:33:33;94004.06;;;8.30;100.00
12793;BME280;6460;42.684;23.260;2024-03-02T00:36:02;93996.50;;;8.55;100.00
12793;BME280;6460;42.684;23.260;2024-03-02T00:38:32;93994.88;;;8.73;100.00
12793;BME280;6460;42.684;23.260;2024-03-02T00:41:05;93992.63;;;8.33;100.00
12793;BME280;6460;42.684;23.260;2024-03-02T00:43:54;94001.19;;;8.39;100.00
12793;BME280;6460;42.684;23.260;2024-03-02T00:46:24;93997.28;;;8.17;100.00
12793;BME280;6460;42.684;23.260;2024-03-02T00:48:54;93993.72;;;8.10;100.00
12793;BME280;6460;42.684;23.260;2024-03-02T00:51:24;93988.63;;;8.05;100.00
12793;BME280;6460;42.684;23.260;2024-03-02T00:53:52;93993.78;;;8.13;100.00
12793;BME280;6460;42.684;23.260;2024-03-02T00:56:24;93994.53;;;8.14;100.00
12793;BME280;6460;42.684;23.260;2024-03-02T00:58:53;93993.56;;;8.22;100.00
12793;BME280;6460;42.684;23.260;2024-03-02T01:01:21;94000.94;;;8.47;100.00
12793;BME280;6460;42.684;23.260;2024-03-02T01:03:49;93988.16;;;8.83;100.00
12793;BME280;6460;42.684;23.260;2024-03-02T01:06:17;94002.28;;;9.02;100.00
12793;BME280;6460;42.684;23.260;2024-03-02T01:08:45;94002.03;;;8.88;100.00
12793;BME280;6460;42.684;23.260;2024-03-02T01:11:17;93990.56;;;9.14;100.00
12793;BME280;6460;42.684;23.260;2024-03-02T01:13:48;93988.41;;;9.23;100.00
12793;BME280;6460;42.684;23.260;2024-03-02T01:16:16;93980.34;;;9.23;100.00
12793;BME280;6460;42.684;23.260;2024-03-02T01:18:44;93983.03;;;8.74;100.00
12793;BME280;6460;42.684;23.260;2024-03-02T01:21:12;93974.84;;;8.64;100.00
12793;BME280;6460;42.684;23.260;2024-03-02T01:23:40;93977.50;;;8.64;100.00
12793;BME280;6460;42.684;23.260;2024-03-02T01:26:07;93964.69;;;8.31;100.00
12793;BME280;6460;42.684;23.260;2024-03-02T01:28:35;93977.72;;;8.13;100.00
12793;BME280;6460;42.684;23.260;2024-03-02T01:31:05;93968.22;;;8.35;100.00
12793;BME280;6460;42.684;23.260;2024-03-02T01:33:32;93963.06;;;8.45;100.00
12793;BME280;6460;42.684;23.260;2024-03-02T01:36:00;93970.25;;;8.41;100.00
12793;BME280;6460;42.684;23.260;2024-03-02T01:38:29;93969.22;;;8.72;100.00
12793;BME280;6460;42.684;23.260;2024-03-02T01:40:57;93963.91;;;8.98;100.00
12793;BME280;6460;42.684;23.260;2024-03-02T01:43:25;93961.09;;;9.14;100.00
12793;BME280;6460;42.684;23.260;2024-03-02T01:45:53;93961.69;;;9.30;100.00
12793;BME280;6460;42.684;23.260;2024-03-02T01:48:24;93960.63;;;9.35;100.00
12793;BME280;6460;42.684;23.260;2024-03-02T01:50:52;93955.09;;;9.50;100.00
12793;BME280;6460;42.684;23.260;2024-03-02T01:53:20;93950.13;;;9.52;100.00
12793;BME280;6460;42.684;23.260;2024-03-02T01:55:48;93952.63;;;9.12;100.00
12793;BME280;6460;42.684;23.260;2024-03-02T01:58:16;93962.75;;;8.73;100.00
12793;BME280;6460;42.684;23.260;2024-03-02T02:00:44;93957.13;;;8.82;100.00
12793;BME280;6460;42.684;23.260;2024-03-02T02:03:12;93960.03;;;8.96;100.00
12793;BME280;6460;42.684;23.260;2024-03-02T02:05:42;93963.69;;;8.84;100.00
12793;BME280;6460;42.684;23.260;2024-03-02T02:08:10;93961.53;;;8.93;100.00
12793;BME280;6460;42.684;23.260;2024-03-02T02:10:38;93955.66;;;9.11;100.00
12793;BME280;6460;42.684;23.260;2024-03-02T02:13:05;93959.97;;;9.15;100.00
12793;BME280;6460;42.684;23.260;2024-03-02T02:15:34;93955.41;;;9.19;100.00
12793;BME280;6460;42.684;23.260;2024-03-02T02:18:03;93956.53;;;8.92;100.00
12793;BME280;6460;42.684;23.260;2024-03-02T02:20:31;93963.78;;;8.91;100.00
12793;BME280;6460;42.684;23.260;2024-03-02T02:23:01;93958.97;;;8.78;100.00
12793;BME280;6460;42.684;23.260;2024-03-02T02:25:30;93958.97;;;8.78;100.00
12793;BME280;6460;42.684;23.260;2024-03-02T02:27:58;93954.34;;;8.75;100.00
12793;BME280;6460;42.684;23.260;2024-03-02T02:30:27;93959.22;;;8.46;100.00
12793;BME280;6460;42.684;23.260;2024-03-02T02:32:55;93965.66;;;8.42;100.00
12793;BME280;6460;42.684;23.260;2024-03-02T02:35:23;93960.19;;;8.35;100.00
12793;BME280;6460;42.684;23.260;2024-03-02T02:37:52;93952.28;;;8.42;100.00
12793;BME280;6460;42.684;23.260;2024-03-02T02:40:23;93955.06;;;8.49;100.00
12793;BME280;6460;42.684;23.260;2024-03-02T02:42:50;93958.50;;;8.49;100.00
12793;BME280;6460;42.684;23.260;2024-03-02T02:45:18;93959.09;;;8.39;100.00
12793;BME280;6460;42.684;23.260;2024-03-02T02:47:48;93958.38;;;8.42;100.00
12793;BME280;6460;42.684;23.260;2024-03-02T02:50:16;93959.28;;;8.50;100.00
12793;BME280;6460;42.684;23.260;2024-03-02T02:52:43;93959.16;;;8.43;100.00
12793;BME280;6460;42.684;23.260;2024-03-02T02:55:12;93964.56;;;8.46;100.00
12793;BME280;6460;42.684;23.260;2024-03-02T02:57:43;93966.06;;;8.44;100.00
12793;BME280;6460;42.684;23.260;2024-03-02T03:00:13;93960.59;;;8.37;100.00
12793;BME280;6460;42.684;23.260;2024-03-02T03:02:42;93954.44;;;8.36;100.00
12793;BME280;6460;42.684;23.260;2024-03-02T03:05:11;93958.38;;;8.42;100.00
12793;BME280;6460;42.684;23.260;2024-03-02T03:07:40;93968.09;;;8.50;100.00
12793;BME280;6460;42.684;23.260;2024-03-02T03:10:10;93966.72;;;8.18;100.00
12793;BME280;6460;42.684;23.260;2024-03-02T03:12:37;93964.75;;;8.15;100.00
12793;BME280;6460;42.684;23.260;2024-03-02T03:15:09;93965.59;;;8.38;100.00
12793;BME280;6460;42.684;23.260;2024-03-02T03:17:38;93963.50;;;8.28;100.00
12793;BME280;6460;42.684;23.260;2024-03-02T03:20:07;93969.81;;;8.01;100.00
12793;BME280;6460;42.684;23.260;2024-03-02T03:22:37;93967.56;;;8.41;100.00
12793;BME280;6460;42.684;23.260;2024-03-02T03:25:05;93960.81;;;8.28;100.00
12793;BME280;6460;42.684;23.260;2024-03-02T03:27:34;93964.34;;;8.32;100.00
12793;BME280;6460;42.684;23.260;2024-03-02T03:30:02;93954.59;;;8.24;100.00
12793;BME280;6460;42.684;23.260;2024-03-02T03:32:33;93969.53;;;8.25;100.00
12793;BME280;6460;42.684;23.260;2024-03-02T03:35:01;93963.19;;;8.33;100.00
12793;BME280;6460;42.684;23.260;2024-03-02T03:37:29;93964.88;;;8.22;100.00
12793;BME280;6460;42.684;23.260;2024-03-02T03:39:59;93961.06;;;8.23;100.00
12793;BME280;6460;42.684;23.260;2024-03-02T03:42:27;93966.72;;;8.18;100.00
12793;BME280;6460;42.684;23.260;2024-03-02T03:44:55;93967.25;;;8.27;100.00
12793;BME280;6460;42.684;23.260;2024-03-02T03:47:23;93965.59;;;8.19;100.00
12793;BME280;6460;42.684;23.260;2024-03-02T03:49:52;93966.00;;;8.21;100.00
12793;BME280;6460;42.684;23.260;2024-03-02T03:52:20;93965.88;;;8.33;100.00
12793;BME280;6460;42.684;23.260;2024-03-02T03:54:48;93961.50;;;8.44;100.00
12793;BME280;6460;42.684;23.260;2024-03-02T03:57:16;93968.03;;;8.47;100.00
12793;BME280;6460;42.684;23.260;2024-03-02T03:59:44;93965.00;;;8.48;100.00
12793;BME280;6460;42.684;23.260;2024-03-02T04:02:12;93967.31;;;8.50;100.00
12793;BME280;6460;42.684;23.260;2024-03-02T04:04:40;93964.13;;;8.64;100.00
12793;BME280;6460;42.684;23.260;2024-03-02T04:07:10;93963.72;;;8.42;100.00
12793;BME280;6460;42.684;23.260;2024-03-02T04:09:38;93961.78;;;8.62;100.00
12793;BME280;6460;42.684;23.260;2024-03-02T04:12:06;93962.56;;;8.63;100.00
12793;BME280;6460;42.684;23.260;2024-03-02T04:14:34;93963.88;;;8.49;100.00
12793;BME280;6460;42.684;23.260;2024-03-02T04:17:03;93967.38;;;8.31;100.00
12793;BME280;6460;42.684;23.260;2024-03-02T04:19:31;93961.31;;;8.57;100.00
12793;BME280;6460;42.684;23.260;2024-03-02T04:22:00;93955.19;;;8.56;100.00
12793;BME280;6460;42.684;23.260;2024-03-02T04:24:30;93963.38;;;8.44;100.00
12793;BME280;6460;42.684;23.260;2024-03-02T04:26:57;93959.34;;;8.54;100.00
12793;BME280;6460;42.684;23.260;2024-03-02T04:29:25;93961.03;;;8.39;100.00
12793;BME280;6460;42.684;23.260;2024-03-02T04:31:53;93964.88;;;8.22;100.00
12793;BME280;6460;42.684;23.260;2024-03-02T04:34:21;93967.03;;;7.94;100.00
12793;BME280;6460;42.684;23.260;2024-03-02T04:36:49;93969.00;;;8.16;100.00
12793;BME280;6460;42.684;23.260;2024-03-02T04:39:17;93968.28;;;8.19;100.00
12793;BME280;6460;42.684;23.260;2024-03-02T04:41:46;93976.88;;;8.09;100.00
12793;BME280;6460;42.684;23.260;2024-03-02T04:44:14;93978.00;;;8.08;100.00
12793;BME280;6460;42.684;23.260;2024-03-02T04:46:42;93974.63;;;8.30;100.00
12793;BME280;6460;42.684;23.260;2024-03-02T04:49:09;93976.25;;;8.16;100.00
12793;BME280;6460;42.684;23.260;2024-03-02T04:51:37;93980.72;;;8.50;100.00
12793;BME280;6460;42.684;23.260;2024-03-02T04:54:05;93978.81;;;8.50;100.00
12793;BME280;6460;42.684;23.260;2024-03-02T04:56:33;93970.06;;;8.54;100.00
12793;BME280;6460;42.684;23.260;2024-03-02T04:59:12;93972.19;;;8.44;100.00
12793;BME280;6460;42.684;23.260;2024-03-02T05:01:39;93974.63;;;8.53;100.00
12793;BME280;6460;42.684;23.260;2024-03-02T05:04:07;93980.78;;;8.54;100.00
12793;BME280;6460;42.684;23.260;2024-03-02T05:06:38;93980.38;;;8.52;100.00
12793;BME280;6460;42.684;23.260;2024-03-02T05:09:06;93979.06;;;8.42;100.00
12793;BME280;6460;42.684;23.260;2024-03-02T05:11:34;93986.13;;;8.54;100.00
12793;BME280;6460;42.684;23.260;2024-03-02T05:14:29;93982.34;;;8.55;100.00
12793;BME280;6460;42.684;23.260;2024-03-02T05:16:56;93992.91;;;8.47;100.00
12793;BME280;6460;42.684;23.260;2024-03-02T05:19:23;93989.47;;;8.47;100.00
12793;BME280;6460;42.684;23.260;2024-03-02T05:21:50;93994.41;;;8.68;100.00
12793;BME280;6460;42.684;23.260;2024-03-02T05:24:18;93998.16;;;8.63;100.00
12793;BME280;6460;42.684;23.260;2024-03-02T05:26:46;94002.31;;;8.61;100.00
12793;BME280;6460;42.684;23.260;2024-03-02T05:29:13;94001.16;;;8.58;100.00
12793;BME280;6460;42.684;23.260;2024-03-02T05:31:42;93999.81;;;8.48;100.00
12793;BME280;6460;42.684;23.260;2024-03-02T05:34:10;94009.81;;;8.52;100.00
12793;BME280;6460;42.684;23.260;2024-03-02T05:36:37;94011.28;;;8.49;100.00
12793;BME280;6460;42.684;23.260;2024-03-02T05:39:05;94012.25;;;8.60;100.00
12793;BME280;6460;42.684;23.260;2024-03-02T05:41:36;94006.84;;;8.57;100.00
12793;BME280;6460;42.684;23.260;2024-03-02T05:44:04;94010.88;;;8.47;100.00
12793;BME280;6460;42.684;23.260;2024-03-02T05:46:31;94013.56;;;8.47;100.00
12793;BME280;6460;42.684;23.260;2024-03-02T05:49:00;94016.72;;;8.52;100.00
12793;BME280;6460;42.684;23.260;2024-03-02T05:51:27;94011.47;;;8.60;100.00
12793;BME280;6460;42.684;23.260;2024-03-02T05:53:55;94015.72;;;8.61;100.00
12793;BME280;6460;42.684;23.260;2024-03-02T05:56:22;94023.03;;;8.64;100.00
12793;BME280;6460;42.684;23.260;2024-03-02T05:58:50;94021.34;;;8.56;100.00
12793;BME280;6460;42.684;23.260;2024-03-02T06:01:33;94018.19;;;8.50;100.00
12793;BME280;6460;42.684;23.260;2024-03-02T06:04:02;94012.13;;;8.53;100.00
12793;BME280;6460;42.684;23.260;2024-03-02T06:06:30;94021.34;;;8.56;100.00
12793;BME280;6460;42.684;23.260;2024-03-02T06:08:59;94013.16;;;8.68;100.00
12793;BME280;6460;42.684;23.260;2024-03-02T06:11:28;94020.78;;;8.66;100.00
12793;BME280;6460;42.684;23.260;2024-03-02T06:13:56;94017.50;;;8.76;100.00
12793;BME280;6460;42.684;23.260;2024-03-02T06:16:24;94019.06;;;8.77;100.00
12793;BME280;6460;42.684;23.260;2024-03-02T06:18:52;94017.56;;;8.79;100.00
12793;BME280;6460;42.684;23.260;2024-03-02T06:21:22;94028.75;;;8.85;100.00
12793;BME280;6460;42.684;23.260;2024-03-02T06:23:50;94021.19;;;8.90;100.00
12793;BME280;6460;42.684;23.260;2024-03-02T06:26:18;94022.16;;;9.01;100.00
12793;BME280;6460;42.684;23.260;2024-03-02T06:28:47;94020.66;;;9.04;100.00
12793;BME280;6460;42.684;23.260;2024-03-02T06:31:15;94026.47;;;9.10;100.00
12793;BME280;6460;42.684;23.260;2024-03-02T06:33:43;94027.38;;;9.17;100.00
12793;BME280;6460;42.684;23.260;2024-03-02T06:36:11;94031.63;;;9.18;100.00
12793;BME280;6460;42.684;23.260;2024-03-02T06:38:39;94034.09;;;9.30;100.00
12793;BME280;6460;42.684;23.260;2024-03-02T06:41:07;94023.09;;;9.39;100.00
12793;BME280;6460;42.684;23.260;2024-03-02T06:43:35;94025.00;;;9.38;100.00
12793;BME280;6460;42.684;23.260;2024-03-02T06:46:02;94035.00;;;9.41;100.00
12793;BME280;6460;42.684;23.260;2024-03-02T06:48:31;94037.00;;;9.44;100.00
12793;BME280;6460;42.684;23.260;2024-03-02T06:50:59;94036.63;;;9.46;100.00
12793;BME280;6460;42.684;23.260;2024-03-02T06:53:27;94037.09;;;9.51;100.00
12793;BME280;6460;42.684;23.260;2024-03-02T06:55:57;94037.09;;;9.51;100.00
12793;BME280;6460;42.684;23.260;2024-03-02T06:58:25;94036.69;;;9.49;100.00
12793;BME280;6460;42.684;23.260;2024-03-02T07:00:53;94042.78;;;9.46;100.00
12793;BME280;6460;42.684;23.260;2024-03-02T07:03:21;94043.50;;;9.43;100.00
12793;BME280;6460;42.684;23.260;2024-03-02T07:05:49;94048.81;;;9.40;100.00
12793;BME280;6460;42.684;23.260;2024-03-02T07:08:17;94043.75;;;9.35;100.00
12793;BME280;6460;42.684;23.260;2024-03-02T07:10:45;94044.75;;;9.27;100.00
12793;BME280;6460;42.684;23.260;2024-03-02T07:13:15;94047.63;;;9.37;100.00
12793;BME280;6460;42.684;23.260;2024-03-02T07:15:43;94040.81;;;9.43;100.00
12793;BME280;6460;42.684;23.260;2024-03-02T07:18:25;94043.22;;;9.52;100.00
12793;BME280;6460;42.684;23.260;2024-03-02T07:20:52;94044.47;;;9.58;100.00
12793;BME280;6460;42.684;23.260;2024-03-02T07:23:21;94046.47;;;9.65;100.00
12793;BME280;6460;42.684;23.260;2024-03-02T07:25:52;94042.78;;;9.73;100.00
12793;BME280;6460;42.684;23.260;2024-03-02T07:28:24;94048.53;;;9.75;100.00
12793;BME280;6460;42.684;23.260;2024-03-02T07:30:58;94043.91;;;9.72;100.00
12793;BME280;6460;42.684;23.260;2024-03-02T07:33:27;94051.13;;;9.68;100.00
12793;BME280;6460;42.684;23.260;2024-03-02T07:35:55;94055.34;;;9.69;100.00
12793;BME280;6460;42.684;23.260;2024-03-02T07:38:23;94056.13;;;9.69;100.00
12793;BME280;6460;42.684;23.260;2024-03-02T07:40:51;94057.63;;;9.67;100.00
12793;BME280;6460;42.684;23.260;2024-03-02T07:43:19;94062.28;;;9.70;100.00
12793;BME280;6460;42.684;23.260;2024-03-02T07:45:49;94063.88;;;9.74;100.00
12793;BME280;6460;42.684;23.260;2024-03-02T07:48:17;94066.38;;;9.64;100.00
12793;BME280;6460;42.684;23.260;2024-03-02T07:50:45;94060.41;;;9.74;100.00
12793;BME280;6460;42.684;23.260;2024-03-02T07:53:13;94064.25;;;9.73;100.00
12793;BME280;6460;42.684;23.260;2024-03-02T07:55:41;94068.09;;;9.75;100.00
12793;BME280;6460;42.684;23.260;2024-03-02T07:58:10;94069.91;;;9.68;100.00
12793;BME280;6460;42.684;23.260;2024-03-02T08:00:39;94067.53;;;9.63;100.00
12793;BME280;6460;42.684;23.260;2024-03-02T08:03:08;94068.34;;;9.40;100.00
12793;BME280;6460;42.684;23.260;2024-03-02T08:05:37;94067.25;;;9.45;100.00
12793;BME280;6460;42.684;23.260;2024-03-02T08:08:06;94069.19;;;9.71;100.00
12793;BME280;6460;42.684;23.260;2024-03-02T08:10:33;94070.69;;;9.68;100.00
12793;BME280;6460;42.684;23.260;2024-03-02T08:13:01;94075.16;;;9.61;100.00
12793;BME280;6460;42.684;23.260;2024-03-02T08:15:29;94071.47;;;9.69;100.00
12793;BME280;6460;42.684;23.260;2024-03-02T08:17:56;94075.88;;;9.57;100.00
12793;BME280;6460;42.684;23.260;2024-03-02T08:20:25;94076.59;;;9.54;100.00
12793;BME280;6460;42.684;23.260;2024-03-02T08:22:52;94073.56;;;9.56;100.00
12793;BME280;6460;42.684;23.260;2024-03-02T08:25:21;94068.16;;;9.52;100.00
12793;BME280;6460;42.684;23.260;2024-03-02T08:27:49;94069.97;;;9.71;100.00
12793;BME280;6460;42.684;23.260;2024-03-02T08:30:16;94075.78;;;9.77;100.00
12793;BME280;6460;42.684;23.260;2024-03-02T08:32:44;94069.16;;;9.97;100.00
12793;BME280;6460;42.684;23.260;2024-03-02T08:35:13;94080.34;;;10.02;100.00
12793;BME280;6460;42.684;23.260;2024-03-02T08:37:42;94075.22;;;10.17;100.00
12793;BME280;6460;42.684;23.260;2024-03-02T08:40:10;94071.34;;;10.14;100.00
12793;BME280;6460;42.684;23.260;2024-03-02T08:42:38;94072.97;;;10.22;100.00
12793;BME280;6460;42.684;23.260;2024-03-02T08:45:06;94071.56;;;10.05;100.00
12793;BME280;6460;42.684;23.260;2024-03-02T08:47:34;94075.38;;;10.31;100.00
12793;BME280;6460;42.684;23.260;2024-03-02T08:50:02;94076.41;;;10.52;100.00
12793;BME280;6460;42.684;23.260;2024-03-02T08:52:30;94076.47;;;10.59;100.00
12793;BME280;6460;42.684;23.260;2024-03-02T08:54:59;94079.25;;;10.67;100.00
12793;BME280;6460;42.684;23.260;2024-03-02T08:57:27;94077.91;;;10.50;100.00
12793;BME280;6460;42.684;23.260;2024-03-02T08:59:54;94080.78;;;10.34;100.00
12793;BME280;6460;42.684;23.260;2024-03-02T09:02:22;94084.75;;;10.44;100.00
12793;BME280;6460;42.684;23.260;2024-03-02T09:04:50;94084.78;;;10.47;100.00
12793;BME280;6460;42.684;23.260;2024-03-02T09:07:18;94079.66;;;10.35;100.00
12793;BME280;6460;42.684;23.260;2024-03-02T09:09:45;94080.63;;;10.53;100.00
12793;BME280;6460;42.684;23.260;2024-03-02T09:12:14;94081.16;;;10.66;100.00
12793;BME280;6460;42.684;23.260;2024-03-02T09:14:42;94080.44;;;10.69;100.00
12793;BME280;6460;42.684;23.260;2024-03-02T09:17:09;94093.25;;;10.83;100.00
12793;BME280;6460;42.684;23.260;2024-03-02T09:19:38;94088.19;;;10.74;100.00
12793;BME280;6460;42.684;23.260;2024-03-02T09:22:05;94100.09;;;10.77;100.00
12793;BME280;6460;42.684;23.260;2024-03-02T09:24:33;94095.13;;;10.79;100.00
12793;BME280;6460;42.684;23.260;2024-03-02T09:27:00;94086.56;;;10.70;100.00
12793;BME280;6460;42.684;23.260;2024-03-02T09:29:29;94095.63;;;10.54;100.00
12793;BME280;6460;42.684;23.260;2024-03-02T09:31:56;94099.09;;;10.55;100.00
12793;BME280;6460;42.684;23.260;2024-03-02T09:34:23;94098.19;;;10.14;100.00
12793;BME280;6460;42.684;23.260;2024-03-02T09:36:51;94096.63;;;10.13;100.00
12793;BME280;6460;42.684;23.260;2024-03-02T09:39:19;94107.75;;;10.41;100.00
12793;BME280;6460;42.684;23.260;2024-03-02T09:41:48;94105.28;;;10.29;100.00
12793;BME280;6460;42.684;23.260;2024-03-02T09:44:15;94100.03;;;10.36;100.00
12793;BME280;6460;42.684;23.260;2024-03-02T09:46:44;94097.59;;;10.28;100.00
12793;BME280;6460;42.684;23.260;2024-03-02T09:49:15;94104.06;;;10.23;100.00
12793;BME280;6460;42.684;23.260;2024-03-02T09:51:45;94099.88;;;10.26;100.00
12793;BME280;6460;42.684;23.260;2024-03-02T09:54:15;94096.63;;;10.13;100.00
12793;BME280;6460;42.684;23.260;2024-03-02T09:56:43;94104.97;;;10.34;100.00
12793;BME280;6460;42.684;23.260;2024-03-02T09:59:11;94106.16;;;10.37;100.00
12793;BME280;6460;42.684;23.260;2024-03-02T10:01:56;94103.84;;;10.35;100.00
12793;BME280;6460;42.684;23.260;2024-03-02T10:04:25;94103.25;;;10.19;100.00
12793;BME280;6460;42.684;23.260;2024-03-02T10:07:10;94102.41;;;10.15;100.00
12793;BME280;6460;42.684;23.260;2024-03-02T10:09:38;94101.78;;;10.25;100.00
12793;BME280;6460;42.684;23.260;2024-03-02T10:12:08;94107.59;;;10.27;100.00
12793;BME280;6460;42.684;23.260;2024-03-02T10:14:35;94099.53;;;10.27;100.00
12793;BME280;6460;42.684;23.260;2024-03-02T10:17:06;94097.09;;;10.19;100.00
12793;BME280;6460;42.684;23.260;2024-03-02T10:19:34;94097.25;;;10.03;100.00
12793;BME280;6460;42.684;23.260;2024-03-02T10:22:03;94095.22;;;9.96;100.00
12793;BME280;6460;42.684;23.260;2024-03-02T10:24:36;94099.97;;;10.06;100.00
12793;BME280;6460;42.684;23.260;2024-03-02T10:27:07;94093.47;;;10.07;100.00
12793;BME280;6460;42.684;23.260;2024-03-02T10:29:39;94092.88;;;10.18;100.00
12793;BME280;6460;42.684;23.260;2024-03-02T10:32:10;94101.28;;;10.16;100.00
12793;BME280;6460;42.684;23.260;2024-03-02T10:34:39;94102.94;;;10.24;100.00
12793;BME280;6460;42.684;23.260;2024-03-02T10:37:07;94093.09;;;10.35;100.00
12793;BME280;6460;42.684;23.260;2024-03-02T10:39:35;94098.41;;;10.32;100.00
12793;BME280;6460;42.684;23.260;2024-03-02T10:42:03;94089.91;;;10.26;100.00
12793;BME280;6460;42.684;23.260;2024-03-02T10:44:31;94096.00;;;10.23;100.00
12793;BME280;6460;42.684;23.260;2024-03-02T10:47:01;94094.09;;;10.24;100.00
12793;BME280;6460;42.684;23.260;2024-03-02T10:49:31;94085.56;;;10.18;100.00
12793;BME280;6460;42.684;23.260;2024-03-02T10:51:59;94083.13;;;10.36;100.00
12793;BME280;6460;42.684;23.260;2024-03-02T10:54:26;94088.22;;;10.44;100.00
12793;BME280;6460;42.684;23.260;2024-03-02T10:56:58;94083.28;;;10.50;100.00
12793;BME280;6460;42.684;23.260;2024-03-02T10:59:28;94079.50;;;10.54;100.00
12793;BME280;6460;42.684;23.260;2024-03-02T11:01:58;94080.69;;;10.57;100.00
12793;BME280;6460;42.684;23.260;2024-03-02T11:04:26;94080.28;;;10.55;100.00
12793;BME280;6460;42.684;23.260;2024-03-02T11:06:59;94077.31;;;10.63;100.00
12793;BME280;6460;42.684;23.260;2024-03-02T11:09:28;94079.16;;;10.59;100.00
12793;BME280;6460;42.684;23.260;2024-03-02T11:12:03;94082.75;;;10.71;100.00
12793;BME280;6460;42.684;23.260;2024-03-02T11:14:32;94075.09;;;10.73;100.00
12793;BME280;6460;42.684;23.260;2024-03-02T11:17:02;94072.41;;;10.73;100.00
12793;BME280;6460;42.684;23.260;2024-03-02T11:19:31;94072.84;;;10.75;100.00
12793;BME280;6460;42.684;23.260;2024-03-02T11:22:02;94072.78;;;10.71;100.00
12793;BME280;6460;42.684;23.260;2024-03-02T11:24:34;94075.03;;;10.66;100.00
12793;BME280;6460;42.684;23.260;2024-03-02T11:27:03;94067.38;;;10.68;100.00
12793;BME280;6460;42.684;23.260;2024-03-02T11:29:46;94067.72;;;10.66;100.00
12793;BME280;6460;42.684;23.260;2024-03-02T11:32:20;94061.97;;;10.64;100.00
12793;BME280;6460;42.684;23.260;2024-03-02T11:34:49;94066.63;;;10.71;100.00
12793;BME280;6460;42.684;23.260;2024-03-02T11:37:19;94061.31;;;10.74;100.00
12793;BME280;6460;42.684;23.260;2024-03-02T11:39:49;94060.56;;;10.77;100.00
12793;BME280;6460;42.684;23.260;2024-03-02T11:42:17;94066.72;;;10.78;100.00
12793;BME280;6460;42.684;23.260;2024-03-02T11:44:46;94064.44;;;10.80;100.00
12793;BME280;6460;42.684;23.260;2024-03-02T11:47:13;94069.81;;;10.80;100.00
12793;BME280;6460;42.684;23.260;2024-03-02T11:49:43;94061.34;;;10.78;100.00
12793;BME280;6460;42.684;23.260;2024-03-02T11:52:12;94062.03;;;10.71;100.00
12793;BME280;6460;42.684;23.260;2024-03-02T11:54:43;94065.84;;;10.70;100.00
12793;BME280;6460;42.684;23.260;2024-03-02T11:57:15;94068.22;;;10.75;100.00
12793;BME280;6460;42.684;23.260;2024-03-02T11:59:43;94067.19;;;10.87;100.00
12793;BME280;6460;42.684;23.260;2024-03-02T12:02:15;94072.66;;;10.94;100.00
12793;BME280;6460;42.684;23.260;2024-03-02T12:04:44;94067.59;;;10.89;100.00
12793;BME280;6460;42.684;23.260;2024-03-02T12:07:12;94063.75;;;10.90;100.00
12793;BME280;6460;42.684;23.260;2024-03-02T12:09:41;94061.47;;;10.92;100.00
12793;BME280;6460;42.684;23.260;2024-03-02T12:12:09;94065.34;;;10.94;100.00
12793;BME280;6460;42.684;23.260;2024-03-02T12:14:38;94066.06;;;10.88;100.00
12793;BME280;6460;42.684;23.260;2024-03-02T12:17:05;94063.66;;;10.79;100.00
12793;BME280;6460;42.684;23.260;2024-03-02T12:19:33;94061.38;;;10.81;100.00
12793;BME280;6460;42.684;23.260;2024-03-02T12:22:00;94065.69;;;10.89;100.00
12793;BME280;6460;42.684;23.260;2024-03-02T12:24:29;94061.81;;;10.87;100.00
12793;BME280;6460;42.684;23.260;2024-03-02T12:26:58;94055.44;;;11.02;100.00
12793;BME280;6460;42.684;23.260;2024-03-02T12:29:26;94055.06;;;11.03;100.00
12793;BME280;6460;42.684;23.260;2024-03-02T12:31:53;94063.13;;;11.03;100.00
12793;BME280;6460;42.684;23.260;2024-03-02T12:34:22;94054.72;;;11.08;100.00
12793;BME280;6460;42.684;23.260;2024-03-02T12:36:49;94058.56;;;11.11;100.00
12793;BME280;6460;42.684;23.260;2024-03-02T12:39:19;94056.66;;;11.11;100.00
12793;BME280;6460;42.684;23.260;2024-03-02T12:41:48;94057.09;;;11.17;100.00
12793;BME280;6460;42.684;23.260;2024-03-02T12:44:17;94056.63;;;11.08;100.00
12793;BME280;6460;42.684;23.260;2024-03-02T12:46:46;94058.78;;;10.92;100.00
12793;BME280;6460;42.684;23.260;2024-03-02T12:49:14;94059.38;;;11.15;100.00
12793;BME280;6460;42.684;23.260;2024-03-02T12:51:42;94060.63;;;11.25;100.00
12793;BME280;6460;42.684;23.260;2024-03-02T12:54:12;94059.91;;;11.31;100.00
12793;BME280;6460;42.684;23.260;2024-03-02T12:56:41;94063.34;;;11.28;100.00
12793;BME280;6460;42.684;23.260;2024-03-02T12:59:19;94061.47;;;11.32;100.00
12793;BME280;6460;42.684;23.260;2024-03-02T13:01:51;94062.47;;;11.17;100.00
12793;BME280;6460;42.684;23.260;2024-03-02T13:04:22;94057.28;;;11.38;100.00
12793;BME280;6460;42.684;23.260;2024-03-02T13:06:50;94072.28;;;10.99;100.00